createdAt,value
2022-08-03T00:00:11.342Z,95700
2022-08-03T00:01:19.057Z,95707
2022-08-03T00:02:27.785Z,95704
2022-08-03T00:03:36.462Z,95702
2022-08-03T00:04:46.131Z,95701
2022-08-03T00:06:04.306Z,95705
2022-08-03T00:07:03.526Z,95702
2022-08-03T00:08:13.242Z,95702
2022-08-03T00:09:22.939Z,95700
2022-08-03T00:10:32.594Z,95701
2022-08-03T00:11:41.368Z,95701
2022-08-03T00:12:50.075Z,95702
2022-08-03T00:13:59.759Z,95699
2022-08-03T00:15:11.432Z,95695
2022-08-03T00:16:16.124Z,95695
2022-08-03T00:17:25.851Z,95696
2022-08-03T00:18:36.540Z,95698
2022-08-03T00:19:46.230Z,95697
2022-08-03T00:20:54.926Z,95701
2022-08-03T00:22:03.624Z,95699
2022-08-03T00:23:13.398Z,95699
2022-08-03T00:24:22.120Z,95696
2022-08-03T00:25:29.795Z,95698
2022-08-03T00:26:38.504Z,95695
2022-08-03T00:27:46.305Z,95692
2022-08-03T00:28:54.981Z,95693
2022-08-03T00:30:03.689Z,95692
2022-08-03T00:31:13.284Z,95693
2022-08-03T00:32:24.115Z,95696
2022-08-03T00:33:31.722Z,95691
2022-08-03T00:34:58.017Z,95694
2022-08-03T00:35:53.174Z,95690
2022-08-03T00:37:00.873Z,95688
2022-08-03T00:38:10.576Z,95689
2022-08-03T00:39:19.296Z,95688
2022-08-03T00:40:27.996Z,95685
2022-08-03T00:41:37.803Z,95690
2022-08-03T00:42:45.488Z,95687
2022-08-03T00:43:54.168Z,95689
2022-08-03T00:45:02.857Z,95690
2022-08-03T00:46:11.559Z,95687
2022-08-03T00:47:21.252Z,95687
2022-08-03T00:48:33.550Z,95685
2022-08-03T00:49:39.670Z,95689
2022-08-03T00:50:49.309Z,95687
2022-08-03T00:51:58.976Z,95688
2022-08-03T00:53:09.790Z,95686
2022-08-03T00:54:18.473Z,95684
2022-08-03T00:55:27.155Z,95690
2022-08-03T00:56:36.838Z,95694
2022-08-03T00:57:47.518Z,95694
2022-08-03T00:58:55.217Z,95692
2022-08-03T01:00:04.919Z,95691
2022-08-03T01:01:14.701Z,95689
2022-08-03T01:02:23.331Z,95689
2022-08-03T01:03:32.027Z,95689
2022-08-03T01:04:41.714Z,95697
2022-08-03T01:05:50.382Z,95694
2022-08-03T01:07:00.107Z,95693
2022-08-03T01:08:10.875Z,95696
2022-08-03T01:09:19.556Z,95698
2022-08-03T01:10:29.294Z,95697
2022-08-03T01:11:59.658Z,95696
2022-08-03T01:12:47.606Z,95694
2022-08-03T01:13:59.452Z,95687
2022-08-03T01:15:06.965Z,95688
2022-08-03T01:16:17.648Z,95684
2022-08-03T01:17:26.312Z,95684
2022-08-03T01:18:34.968Z,95685
2022-08-03T01:19:44.633Z,95682
2022-08-03T01:20:52.349Z,95684
2022-08-03T01:22:01.027Z,95681
2022-08-03T01:23:08.681Z,95681
2022-08-03T01:24:17.346Z,95678
2022-08-03T01:25:27.016Z,95677
2022-08-03T01:26:35.690Z,95676
2022-08-03T01:27:44.352Z,95676
2022-08-03T01:28:54.031Z,95674
2022-08-03T01:30:02.699Z,95676
2022-08-03T01:31:11.387Z,95676
2022-08-03T01:32:52.362Z,95674
2022-08-03T01:33:30.714Z,95674
2022-08-03T01:34:40.389Z,95674
2022-08-03T01:35:48.091Z,95674
2022-08-03T01:36:56.747Z,95674
2022-08-03T01:38:06.488Z,95671
2022-08-03T01:39:14.245Z,95668
2022-08-03T01:40:23.944Z,95669
2022-08-03T01:41:33.614Z,95669
2022-08-03T01:42:42.352Z,95665
2022-08-03T01:43:55.563Z,95665
2022-08-03T01:45:02.705Z,95668
2022-08-03T01:46:11.377Z,95666
2022-08-03T01:47:21.067Z,95663
2022-08-03T01:48:29.750Z,95667
2022-08-03T01:49:38.504Z,95669
2022-08-03T01:50:47.115Z,95666
2022-08-03T01:51:56.238Z,95666
2022-08-03T01:53:06.412Z,95671
2022-08-03T01:54:14.068Z,95668
2022-08-03T01:55:23.745Z,95668
2022-08-03T01:56:33.631Z,95669
2022-08-03T01:58:04.551Z,95669
2022-08-03T01:58:51.949Z,95671
2022-08-03T02:00:00.636Z,95670
2022-08-03T02:01:09.384Z,95671
2022-08-03T02:02:32.527Z,95670
2022-08-03T02:03:29.645Z,95671
2022-08-03T02:04:38.313Z,95670
2022-08-03T02:05:47.982Z,95668
2022-08-03T02:07:01.051Z,95666
2022-08-03T02:08:08.336Z,95662
2022-08-03T02:09:18.026Z,95660
2022-08-03T02:10:35.073Z,95664
2022-08-03T02:11:37.339Z,95658
2022-08-03T02:12:46.147Z,95665
2022-08-03T02:13:54.673Z,95661
2022-08-03T02:15:04.336Z,95667
2022-08-03T02:16:14.005Z,95661
2022-08-03T02:17:38.832Z,95659
2022-08-03T02:18:34.350Z,95657
2022-08-03T02:19:44.051Z,95654
2022-08-03T02:20:53.733Z,95657
2022-08-03T02:22:02.380Z,95658
2022-08-03T02:23:11.073Z,95660
2022-08-03T02:24:20.795Z,95660
2022-08-03T02:25:28.493Z,95659
2022-08-03T02:26:37.142Z,95661
2022-08-03T02:27:45.823Z,95658
2022-08-03T02:28:54.503Z,95656
2022-08-03T02:30:05.214Z,95662
2022-08-03T02:31:12.868Z,95662
2022-08-03T02:32:21.561Z,95661
2022-08-03T02:33:31.238Z,95663
2022-08-03T02:34:39.927Z,95662
2022-08-03T02:35:47.594Z,95662
2022-08-03T02:36:57.301Z,95664
2022-08-03T02:38:06.006Z,95666
2022-08-03T02:39:15.721Z,95661
2022-08-03T02:40:23.386Z,95660
2022-08-03T02:41:32.080Z,95665
2022-08-03T02:42:42.741Z,95658
2022-08-03T02:44:06.783Z,95664
2022-08-03T02:45:01.140Z,95665
2022-08-03T02:46:11.795Z,95664
2022-08-03T02:47:19.483Z,95664
2022-08-03T02:48:28.169Z,95662
2022-08-03T02:49:41.234Z,95662
2022-08-03T02:50:48.488Z,95659
2022-08-03T02:51:58.158Z,95661
2022-08-03T02:53:06.826Z,95667
2022-08-03T02:54:15.506Z,95665
2022-08-03T02:55:25.170Z,95666
2022-08-03T02:56:32.895Z,95666
2022-08-03T02:57:41.560Z,95661
2022-08-03T02:58:50.222Z,95662
2022-08-03T02:59:58.025Z,95665
2022-08-03T03:01:07.810Z,95662
2022-08-03T03:02:17.694Z,95661
2022-08-03T03:03:27.034Z,95662
2022-08-03T03:04:36.855Z,95659
2022-08-03T03:05:53.977Z,95659
2022-08-03T03:06:56.259Z,95659
2022-08-03T03:08:17.888Z,95660
2022-08-03T03:09:17.569Z,95656
2022-08-03T03:10:27.244Z,95657
2022-08-03T03:11:36.962Z,95657
2022-08-03T03:12:45.635Z,95655
2022-08-03T03:13:55.353Z,95656
2022-08-03T03:15:04.042Z,95655
2022-08-03T03:16:12.691Z,95650
2022-08-03T03:17:22.432Z,95655
2022-08-03T03:18:30.106Z,95651
2022-08-03T03:19:37.828Z,95652
2022-08-03T03:20:47.510Z,95653
2022-08-03T03:21:56.190Z,95656
2022-08-03T03:23:05.923Z,95653
2022-08-03T03:24:14.611Z,95654
2022-08-03T03:25:23.277Z,95652
2022-08-03T03:26:33.977Z,95651
2022-08-03T03:27:44.656Z,95653
2022-08-03T03:28:54.393Z,95653
2022-08-03T03:30:03.066Z,95652
2022-08-03T03:31:11.744Z,95654
2022-08-03T03:32:21.454Z,95656
2022-08-03T03:33:29.130Z,95658
2022-08-03T03:34:37.838Z,95661
2022-08-03T03:35:47.592Z,95662
2022-08-03T03:36:56.298Z,95660
2022-08-03T03:38:04.951Z,95662
2022-08-03T03:39:14.276Z,95661
2022-08-03T03:40:23.337Z,95658
2022-08-03T03:41:33.717Z,95656
2022-08-03T03:42:41.702Z,95658
2022-08-03T03:43:51.458Z,95663
2022-08-03T03:45:01.178Z,95662
2022-08-03T03:46:09.867Z,95660
2022-08-03T03:47:32.509Z,95659
2022-08-03T03:48:30.231Z,95659
2022-08-03T03:49:39.987Z,95661
2022-08-03T03:50:49.559Z,95665
2022-08-03T03:51:57.254Z,95663
2022-08-03T03:53:06.925Z,95661
2022-08-03T03:54:16.595Z,95661
2022-08-03T03:55:26.276Z,95660
2022-08-03T03:56:35.976Z,95663
2022-08-03T03:57:45.679Z,95669
2022-08-03T03:58:54.354Z,95664
2022-08-03T04:00:03.061Z,95665
2022-08-03T04:01:10.755Z,95665
2022-08-03T04:02:20.453Z,95662
2022-08-03T04:03:30.201Z,95663
2022-08-03T04:04:37.886Z,95663
2022-08-03T04:05:46.567Z,95664
2022-08-03T04:06:55.239Z,95662
2022-08-03T04:08:04.904Z,95662
2022-08-03T04:09:14.610Z,95661
2022-08-03T04:10:22.275Z,95666
2022-08-03T04:11:32.203Z,95664
2022-08-03T04:12:49.127Z,95667
2022-08-03T04:13:52.363Z,95667
2022-08-03T04:15:02.059Z,95665
2022-08-03T04:16:11.733Z,95666
2022-08-03T04:17:20.415Z,95661
2022-08-03T04:18:30.107Z,95666
2022-08-03T04:19:38.767Z,95661
2022-08-03T04:20:48.460Z,95667
2022-08-03T04:21:58.139Z,95665
2022-08-03T04:23:12.762Z,95664
2022-08-03T04:24:16.465Z,95668
2022-08-03T04:25:27.126Z,95669
2022-08-03T04:26:35.834Z,95672
2022-08-03T04:27:45.512Z,95669
2022-08-03T04:28:56.154Z,95676
2022-08-03T04:30:04.824Z,95673
2022-08-03T04:31:14.494Z,95673
2022-08-03T04:32:23.188Z,95673
2022-08-03T04:33:30.892Z,95675
2022-08-03T04:34:39.554Z,95674
2022-08-03T04:35:58.689Z,95677
2022-08-03T04:36:59.863Z,95671
2022-08-03T04:38:07.566Z,95675
2022-08-03T04:39:16.224Z,95678
2022-08-03T04:40:25.871Z,95673
2022-08-03T04:42:02.160Z,95676
2022-08-03T04:42:46.194Z,95673
2022-08-03T04:43:55.932Z,95673
2022-08-03T04:45:03.612Z,95677
2022-08-03T04:46:12.266Z,95677
2022-08-03T04:47:21.942Z,95680
2022-08-03T04:48:29.602Z,95680
2022-08-03T04:49:37.377Z,95680
2022-08-03T04:50:45.997Z,95681
2022-08-03T04:51:54.670Z,95676
2022-08-03T04:53:04.425Z,95678
2022-08-03T04:54:15.053Z,95683
2022-08-03T04:55:31.906Z,95686
2022-08-03T04:56:52.983Z,95684
2022-08-03T04:58:08.327Z,95686
2022-08-03T04:59:18.008Z,95690
2022-08-03T05:00:26.671Z,95690
2022-08-03T05:01:35.416Z,95687
2022-08-03T05:02:45.047Z,95686
2022-08-03T05:03:53.758Z,95684
2022-08-03T05:05:02.434Z,95686
2022-08-03T05:06:13.237Z,95681
2022-08-03T05:07:24.954Z,95682
2022-08-03T05:08:32.536Z,95682
2022-08-03T05:09:50.296Z,95684
2022-08-03T05:10:51.826Z,95686
2022-08-03T05:12:02.495Z,95684
2022-08-03T05:13:11.160Z,95690
2022-08-03T05:14:27.939Z,95686
2022-08-03T05:15:31.477Z,95688
2022-08-03T05:16:42.112Z,95688
2022-08-03T05:17:50.807Z,95690
2022-08-03T05:18:59.473Z,95691
2022-08-03T05:20:08.154Z,95694
2022-08-03T05:21:18.821Z,95693
2022-08-03T05:22:27.512Z,95694
2022-08-03T05:23:36.186Z,95692
2022-08-03T05:24:45.856Z,95698
2022-08-03T05:25:54.518Z,95696
2022-08-03T05:27:02.202Z,95698
2022-08-03T05:28:10.890Z,95699
2022-08-03T05:29:19.591Z,95700
2022-08-03T05:30:32.475Z,95699
2022-08-03T05:31:37.934Z,95702
2022-08-03T05:32:46.570Z,95703
2022-08-03T05:33:56.247Z,95706
2022-08-03T05:35:55.436Z,95701
2022-08-03T05:36:13.579Z,95703
2022-08-03T05:37:22.233Z,95704
2022-08-03T05:38:34.474Z,95703
2022-08-03T05:39:40.577Z,95701
2022-08-03T05:40:57.136Z,95704
2022-08-03T05:41:57.955Z,95699
2022-08-03T05:43:07.652Z,95700
2022-08-03T05:44:17.331Z,95704
2022-08-03T05:45:28.467Z,95699
2022-08-03T05:46:36.683Z,95700
2022-08-03T05:47:45.331Z,95699
2022-08-03T05:48:55.017Z,95701
2022-08-03T05:50:03.726Z,95706
2022-08-03T05:51:12.564Z,95705
2022-08-03T05:52:22.298Z,95701
2022-08-03T05:53:29.805Z,95698
2022-08-03T05:54:57.091Z,95705
2022-08-03T05:55:54.244Z,95701
2022-08-03T05:57:00.755Z,95704
2022-08-03T05:58:10.431Z,95696
2022-08-03T05:59:37.437Z,95698
2022-08-03T06:00:27.754Z,95698
2022-08-03T06:01:37.476Z,95698
2022-08-03T06:02:45.102Z,95696
2022-08-03T06:03:53.789Z,95699
2022-08-03T06:05:02.486Z,95700
2022-08-03T06:06:11.122Z,95701
2022-08-03T06:07:20.817Z,95703
2022-08-03T06:08:28.487Z,95704
2022-08-03T06:10:34.679Z,95702
2022-08-03T06:10:49.012Z,95703
2022-08-03T06:11:57.689Z,95707
2022-08-03T06:13:06.330Z,95706
2022-08-03T06:14:15.011Z,95710
2022-08-03T06:15:23.688Z,95703
2022-08-03T06:16:33.358Z,95705
2022-08-03T06:17:43.032Z,95709
2022-08-03T06:18:51.746Z,95707
2022-08-03T06:20:01.447Z,95711
2022-08-03T06:21:09.723Z,95705
2022-08-03T06:22:18.926Z,95705
2022-08-03T06:23:53.666Z,95708
2022-08-03T06:24:39.098Z,95709
2022-08-03T06:25:49.746Z,95710
2022-08-03T06:26:57.434Z,95712
2022-08-03T06:28:07.652Z,95715
2022-08-03T06:29:17.736Z,95711
2022-08-03T06:30:25.414Z,95716
2022-08-03T06:31:34.147Z,95706
2022-08-03T06:32:43.817Z,95709
2022-08-03T06:34:31.969Z,95713
2022-08-03T06:35:04.117Z,95715
2022-08-03T06:36:12.146Z,95714
2022-08-03T06:37:20.449Z,95718
2022-08-03T06:38:30.141Z,95723
2022-08-03T06:39:39.820Z,95718
2022-08-03T06:40:49.471Z,95718
2022-08-03T06:41:59.132Z,95717
2022-08-03T06:43:08.503Z,95717
2022-08-03T06:44:14.479Z,95719
2022-08-03T06:45:24.131Z,95717
2022-08-03T06:46:34.786Z,95722
2022-08-03T06:47:44.484Z,95722
2022-08-03T06:48:54.170Z,95723
2022-08-03T06:50:13.099Z,95724
2022-08-03T06:51:13.468Z,95722
2022-08-03T06:52:37.341Z,95718
2022-08-03T06:53:31.799Z,95721
2022-08-03T06:54:41.461Z,95725
2022-08-03T06:55:54.331Z,95726
2022-08-03T06:56:58.784Z,95720
2022-08-03T06:58:08.467Z,95723
2022-08-03T07:00:05.927Z,95725
2022-08-03T07:00:27.787Z,95722
2022-08-03T07:01:36.497Z,95725
2022-08-03T07:02:44.132Z,95726
2022-08-03T07:03:54.786Z,95728
2022-08-03T07:05:02.426Z,95724
2022-08-03T07:06:11.101Z,95731
2022-08-03T07:07:19.822Z,95729
2022-08-03T07:08:33.280Z,95732
2022-08-03T07:09:38.218Z,95724
2022-08-03T07:10:47.861Z,95727
2022-08-03T07:11:57.543Z,95723
2022-08-03T07:13:07.402Z,95724
2022-08-03T07:14:16.072Z,95723
2022-08-03T07:15:38.202Z,95724
2022-08-03T07:16:36.434Z,95724
2022-08-03T07:17:45.103Z,95722
2022-08-03T07:18:54.791Z,95721
2022-08-03T07:20:03.467Z,95725
2022-08-03T07:21:12.120Z,95725
2022-08-03T07:22:21.791Z,95723
2022-08-03T07:23:30.455Z,95721
2022-08-03T07:24:38.151Z,95722
2022-08-03T07:25:46.820Z,95725
2022-08-03T07:26:55.486Z,95724
2022-08-03T07:28:05.182Z,95723
2022-08-03T07:29:14.845Z,95722
2022-08-03T07:30:23.549Z,95723
2022-08-03T07:31:34.222Z,95721
2022-08-03T07:32:49.041Z,95719
2022-08-03T07:33:50.527Z,95717
2022-08-03T07:35:01.010Z,95719
2022-08-03T07:36:09.871Z,95714
2022-08-03T07:37:19.578Z,95715
2022-08-03T07:38:28.255Z,95716
2022-08-03T07:39:36.918Z,95716
2022-08-03T07:40:46.624Z,95716
2022-08-03T07:41:55.310Z,95712
2022-08-03T07:43:02.991Z,95709
2022-08-03T07:44:11.668Z,95715
2022-08-03T07:45:20.328Z,95715
2022-08-03T07:46:30.018Z,95718
2022-08-03T07:47:38.740Z,95716
2022-08-03T07:48:48.418Z,95715
2022-08-03T07:49:58.109Z,95720
2022-08-03T07:51:06.792Z,95720
2022-08-03T07:52:16.763Z,95716
2022-08-03T07:53:26.167Z,95718
2022-08-03T07:54:34.845Z,95719
2022-08-03T07:55:44.523Z,95717
2022-08-03T07:56:52.198Z,95714
2022-08-03T07:58:01.866Z,95715
2022-08-03T07:59:11.560Z,95709
2022-08-03T08:00:19.248Z,95711
2022-08-03T08:01:27.964Z,95709
2022-08-03T08:02:36.613Z,95709
2022-08-03T08:03:52.539Z,95706
2022-08-03T08:04:55.965Z,95704
2022-08-03T08:06:05.612Z,95705
2022-08-03T08:07:15.325Z,95704
2022-08-03T08:08:24.995Z,95701
2022-08-03T08:09:34.666Z,95707
2022-08-03T08:10:58.050Z,95708
2022-08-03T08:11:55.042Z,95708
2022-08-03T08:13:03.717Z,95710
2022-08-03T08:14:13.394Z,95706
2022-08-03T08:15:22.089Z,95710
2022-08-03T08:16:31.993Z,95704
2022-08-03T08:17:41.703Z,95702
2022-08-03T08:18:49.388Z,95698
2022-08-03T08:19:58.091Z,95699
2022-08-03T08:21:08.820Z,95700
2022-08-03T08:22:17.536Z,95706
2022-08-03T08:23:40.873Z,95703
2022-08-03T08:24:38.745Z,95707
2022-08-03T08:25:47.427Z,95708
2022-08-03T08:26:57.079Z,95702
2022-08-03T08:28:21.693Z,95700
2022-08-03T08:29:16.498Z,95704
2022-08-03T08:30:25.211Z,95709
2022-08-03T08:31:34.861Z,95707
2022-08-03T08:32:44.548Z,95706
2022-08-03T08:34:08.722Z,95709
2022-08-03T08:35:02.911Z,95708
2022-08-03T08:36:15.332Z,95709
2022-08-03T08:37:20.246Z,95703
2022-08-03T08:38:29.944Z,95706
2022-08-03T08:39:39.646Z,95710
2022-08-03T08:40:48.375Z,95704
2022-08-03T08:41:58.072Z,95707
2022-08-03T08:43:07.772Z,95708
2022-08-03T08:44:15.423Z,95704
2022-08-03T08:45:24.118Z,95705
2022-08-03T08:46:32.786Z,95702
2022-08-03T08:47:51.373Z,95703
2022-08-03T08:48:52.143Z,95707
2022-08-03T08:50:09.538Z,95701
2022-08-03T08:51:10.525Z,95702
2022-08-03T08:52:22.189Z,95701
2022-08-03T08:53:30.861Z,95699
2022-08-03T08:54:39.549Z,95702
2022-08-03T08:55:56.973Z,95704
2022-08-03T08:56:58.959Z,95705
2022-08-03T08:58:09.629Z,95701
2022-08-03T08:59:20.289Z,95700
2022-08-03T09:00:29.966Z,95698
2022-08-03T09:01:39.654Z,95702
2022-08-03T09:02:47.350Z,95697
2022-08-03T09:03:56.056Z,95700
2022-08-03T09:05:07.576Z,95700
2022-08-03T09:06:14.409Z,95698
2022-08-03T09:07:24.119Z,95703
2022-08-03T09:08:31.844Z,95700
2022-08-03T09:10:04.744Z,95697
2022-08-03T09:10:52.320Z,95701
2022-08-03T09:12:21.021Z,95695
2022-08-03T09:13:11.692Z,95694
2022-08-03T09:14:33.644Z,95692
2022-08-03T09:15:31.138Z,95695
2022-08-03T09:16:40.975Z,95700
2022-08-03T09:17:51.195Z,95695
2022-08-03T09:18:58.394Z,95696
2022-08-03T09:20:08.399Z,95694
2022-08-03T09:21:30.451Z,95698
2022-08-03T09:22:25.935Z,95699
2022-08-03T09:23:51.318Z,95702
2022-08-03T09:24:45.384Z,95695
2022-08-03T09:25:56.066Z,95700
2022-08-03T09:27:05.759Z,95698
2022-08-03T09:28:13.437Z,95685
2022-08-03T09:29:24.119Z,95690
2022-08-03T09:30:34.050Z,95694
2022-08-03T09:31:43.389Z,95690
2022-08-03T09:32:52.247Z,95691
2022-08-03T09:34:00.955Z,95692
2022-08-03T09:35:10.624Z,95694
2022-08-03T09:36:19.331Z,95688
2022-08-03T09:38:08.521Z,95689
2022-08-03T09:38:39.778Z,95688
2022-08-03T09:39:47.440Z,95689
2022-08-03T09:41:00.181Z,95693
2022-08-03T09:42:06.822Z,95694
2022-08-03T09:43:16.536Z,95691
2022-08-03T09:44:26.321Z,95690
2022-08-03T09:45:33.885Z,95696
2022-08-03T09:46:43.569Z,95693
2022-08-03T09:47:53.226Z,95698
2022-08-03T09:49:02.071Z,95692
2022-08-03T09:50:12.699Z,95695
2022-08-03T09:51:33.382Z,95694
2022-08-03T09:52:38.591Z,95693
2022-08-03T09:53:42.747Z,95692
2022-08-03T09:54:53.500Z,95690
2022-08-03T09:56:30.604Z,95687
2022-08-03T09:57:14.058Z,95689
2022-08-03T09:58:22.662Z,95689
2022-08-03T09:59:32.454Z,95694
2022-08-03T10:00:41.264Z,95690
2022-08-03T10:01:50.000Z,95685
2022-08-03T10:02:59.711Z,95683
2022-08-03T10:04:06.510Z,95688
2022-08-03T10:05:17.771Z,95689
2022-08-03T10:06:28.750Z,95688
2022-08-03T10:07:34.598Z,95689
2022-08-03T10:08:44.274Z,95690
2022-08-03T10:09:52.968Z,95688
2022-08-03T10:11:02.693Z,95681
2022-08-03T10:12:12.413Z,95686
2022-08-03T10:13:20.109Z,95688
2022-08-03T10:14:28.773Z,95677
2022-08-03T10:16:20.680Z,95680
2022-08-03T10:16:48.134Z,95681
2022-08-03T10:17:57.864Z,95683
2022-08-03T10:19:07.575Z,95679
2022-08-03T10:20:16.240Z,95677
2022-08-03T10:21:25.932Z,95677
2022-08-03T10:22:35.631Z,95675
2022-08-03T10:23:44.484Z,95679
2022-08-03T10:24:54.214Z,95673
2022-08-03T10:26:02.982Z,95681
2022-08-03T10:27:11.673Z,95671
2022-08-03T10:28:20.349Z,95675
2022-08-03T10:29:29.080Z,95665
2022-08-03T10:30:37.783Z,95668
2022-08-03T10:31:54.423Z,95667
2022-08-03T10:32:55.085Z,95662
2022-08-03T10:34:04.808Z,95669
2022-08-03T10:35:19.019Z,95667
2022-08-03T10:36:22.178Z,95665
2022-08-03T10:37:32.836Z,95669
2022-08-03T10:38:40.511Z,95668
2022-08-03T10:39:49.181Z,95665
2022-08-03T10:40:59.345Z,95666
2022-08-03T10:42:10.675Z,95665
2022-08-03T10:43:18.309Z,95661
2022-08-03T10:44:26.994Z,95663
2022-08-03T10:45:36.668Z,95665
2022-08-03T10:46:46.368Z,95660
2022-08-03T10:47:54.053Z,95662
2022-08-03T10:49:03.849Z,95662
2022-08-03T10:50:13.474Z,95662
2022-08-03T10:51:22.196Z,95657
2022-08-03T10:52:35.055Z,95659
2022-08-03T10:53:44.108Z,95655
2022-08-03T10:54:52.223Z,95652
2022-08-03T10:56:02.939Z,95652
2022-08-03T10:57:13.791Z,95648
2022-08-03T10:58:30.394Z,95652
2022-08-03T10:59:32.972Z,95649
2022-08-03T11:00:41.714Z,95650
2022-08-03T11:01:58.427Z,95652
2022-08-03T11:03:02.038Z,95652
2022-08-03T11:04:14.016Z,95647
2022-08-03T11:05:20.433Z,95645
2022-08-03T11:06:27.111Z,95643
2022-08-03T11:07:36.830Z,95646
2022-08-03T11:08:47.533Z,95644
2022-08-03T11:09:56.261Z,95645
2022-08-03T11:11:05.974Z,95646
2022-08-03T11:12:14.653Z,95639
2022-08-03T11:13:23.345Z,95642
2022-08-03T11:14:33.027Z,95641
2022-08-03T11:15:41.727Z,95646
2022-08-03T11:16:51.414Z,95646
2022-08-03T11:18:01.146Z,95639
2022-08-03T11:19:11.801Z,95643
2022-08-03T11:20:19.473Z,95641
2022-08-03T11:21:30.395Z,95642
2022-08-03T11:22:36.841Z,95638
2022-08-03T11:24:02.287Z,95634
2022-08-03T11:24:57.221Z,95630
2022-08-03T11:26:05.891Z,95638
2022-08-03T11:27:15.831Z,95635
2022-08-03T11:28:23.498Z,95637
2022-08-03T11:29:32.211Z,95642
2022-08-03T11:30:40.866Z,95640
2022-08-03T11:31:50.831Z,95632
2022-08-03T11:32:58.224Z,95636
2022-08-03T11:34:05.937Z,95638
2022-08-03T11:35:14.606Z,95638
2022-08-03T11:36:31.933Z,95640
2022-08-03T11:37:34.982Z,95635
2022-08-03T11:38:45.699Z,95635
2022-08-03T11:39:54.390Z,95631
2022-08-03T11:41:05.079Z,95633
2022-08-03T11:42:14.784Z,95631
2022-08-03T11:43:25.763Z,95629
2022-08-03T11:44:32.203Z,95632
2022-08-03T11:45:41.889Z,95629
2022-08-03T11:46:50.591Z,95629
2022-08-03T11:48:00.300Z,95630
2022-08-03T11:49:10.643Z,95634
2022-08-03T11:50:17.655Z,95635
2022-08-03T11:51:27.340Z,95636
2022-08-03T11:52:35.034Z,95634
2022-08-03T11:53:43.701Z,95629
2022-08-03T11:54:56.485Z,95630
2022-08-03T11:56:02.209Z,95628
2022-08-03T11:57:12.919Z,95627
2022-08-03T11:59:01.863Z,95627
2022-08-03T11:59:34.217Z,95628
2022-08-03T12:00:43.884Z,95627
2022-08-03T12:01:51.569Z,95626
2022-08-03T12:02:59.278Z,95631
2022-08-03T12:04:08.953Z,95625
2022-08-03T12:05:17.655Z,95622
2022-08-03T12:06:25.298Z,95624
2022-08-03T12:08:02.784Z,95623
2022-08-03T12:08:44.727Z,95625
2022-08-03T12:09:54.412Z,95620
2022-08-03T12:11:03.143Z,95628
2022-08-03T12:12:11.798Z,95626
2022-08-03T12:13:57.330Z,95624
2022-08-03T12:14:45.982Z,95617
2022-08-03T12:15:41.807Z,95624
2022-08-03T12:16:50.509Z,95614
2022-08-03T12:17:59.168Z,95615
2022-08-03T12:19:09.917Z,95617
2022-08-03T12:20:17.590Z,95611
2022-08-03T12:21:27.269Z,95614
2022-08-03T12:22:36.946Z,95611
2022-08-03T12:23:44.612Z,95612
2022-08-03T12:24:53.337Z,95611
2022-08-03T12:26:02.023Z,95616
2022-08-03T12:27:11.808Z,95610
2022-08-03T12:28:28.499Z,95604
2022-08-03T12:29:32.072Z,95609
2022-08-03T12:30:41.014Z,95602
2022-08-03T12:31:50.787Z,95600
2022-08-03T12:32:59.449Z,95598
2022-08-03T12:34:08.177Z,95600
2022-08-03T12:35:17.870Z,95602
2022-08-03T12:36:25.604Z,95602
2022-08-03T12:37:34.610Z,95602
2022-08-03T12:38:43.986Z,95605
2022-08-03T12:40:00.379Z,95601
2022-08-03T12:41:02.387Z,95599
2022-08-03T12:42:12.086Z,95601
2022-08-03T12:43:20.747Z,95602
2022-08-03T12:44:30.437Z,95602
2022-08-03T12:45:38.108Z,95595
2022-08-03T12:46:48.231Z,95597
2022-08-03T12:47:56.500Z,95594
2022-08-03T12:49:05.210Z,95594
2022-08-03T12:50:13.863Z,95595
2022-08-03T12:51:22.541Z,95593
2022-08-03T12:52:33.507Z,95591
2022-08-03T12:53:41.960Z,95593
2022-08-03T12:54:49.619Z,95596
2022-08-03T12:56:04.920Z,95590
2022-08-03T12:57:08.946Z,95594
2022-08-03T12:58:19.613Z,95588
2022-08-03T12:59:32.434Z,95588
2022-08-03T13:00:41.091Z,95583
2022-08-03T13:01:55.014Z,95590
2022-08-03T13:03:27.654Z,95589
2022-08-03T13:04:15.457Z,95593
2022-08-03T13:05:20.751Z,95585
2022-08-03T13:06:29.472Z,95590
2022-08-03T13:07:37.134Z,95587
2022-08-03T13:08:46.833Z,95587
2022-08-03T13:09:55.528Z,95588
2022-08-03T13:11:04.231Z,95586
2022-08-03T13:12:13.910Z,95585
2022-08-03T13:13:23.602Z,95584
2022-08-03T13:14:32.287Z,95581
2022-08-03T13:15:47.896Z,95585
2022-08-03T13:16:51.669Z,95583
2022-08-03T13:18:01.351Z,95585
2022-08-03T13:19:10.039Z,95584
2022-08-03T13:20:19.703Z,95584
2022-08-03T13:21:29.405Z,95584
2022-08-03T13:22:37.099Z,95587
2022-08-03T13:23:44.739Z,95585
2022-08-03T13:24:54.425Z,95588
2022-08-03T13:26:03.102Z,95587
2022-08-03T13:27:58.927Z,95588
2022-08-03T13:28:23.484Z,95588
2022-08-03T13:29:32.159Z,95589
2022-08-03T13:30:41.832Z,95589
2022-08-03T13:31:50.694Z,95580
2022-08-03T13:32:59.152Z,95583
2022-08-03T13:34:09.015Z,95587
2022-08-03T13:35:16.783Z,95587
2022-08-03T13:36:26.409Z,95585
2022-08-03T13:37:37.071Z,95581
2022-08-03T13:38:46.789Z,95585
2022-08-03T13:39:58.594Z,95577
2022-08-03T13:41:07.192Z,95580
2022-08-03T13:42:15.870Z,95580
2022-08-03T13:43:25.540Z,95577
2022-08-03T13:44:34.255Z,95576
2022-08-03T13:45:47.567Z,95575
2022-08-03T13:46:54.611Z,95575
2022-08-03T13:48:03.300Z,95570
2022-08-03T13:49:13.004Z,95572
2022-08-03T13:50:20.675Z,95577
2022-08-03T13:51:29.400Z,95574
2022-08-03T13:52:39.075Z,95574
2022-08-03T13:53:48.758Z,95571
2022-08-03T13:54:57.456Z,95577
2022-08-03T13:56:05.125Z,95574
2022-08-03T13:58:01.782Z,95573
2022-08-03T13:58:25.482Z,95569
2022-08-03T13:59:33.341Z,95566
2022-08-03T14:00:43.005Z,95570
2022-08-03T14:01:55.579Z,95560
2022-08-03T14:03:06.927Z,95566
2022-08-03T14:04:15.886Z,95560
2022-08-03T14:05:22.802Z,95561
2022-08-03T14:06:32.452Z,95556
2022-08-03T14:07:43.121Z,95553
2022-08-03T14:08:50.815Z,95552
2022-08-03T14:10:00.509Z,95550
2022-08-03T14:11:10.189Z,95553
2022-08-03T14:12:17.869Z,95553
2022-08-03T14:13:27.536Z,95548
2022-08-03T14:14:38.282Z,95550
2022-08-03T14:15:49.572Z,95550
2022-08-03T14:16:57.650Z,95545
2022-08-03T14:18:05.654Z,95545
2022-08-03T14:19:15.424Z,95550
2022-08-03T14:20:39.079Z,95549
2022-08-03T14:21:36.757Z,95554
2022-08-03T14:22:45.521Z,95542
2022-08-03T14:23:54.223Z,95547
2022-08-03T14:25:02.933Z,95542
2022-08-03T14:26:12.747Z,95539
2022-08-03T14:27:20.600Z,95545
2022-08-03T14:28:30.178Z,95546
2022-08-03T14:29:39.869Z,95551
2022-08-03T14:30:48.671Z,95548
2022-08-03T14:32:09.355Z,95544
2022-08-03T14:33:08.934Z,95544
2022-08-03T14:34:16.672Z,95543
2022-08-03T14:35:25.393Z,95549
2022-08-03T14:36:35.091Z,95551
2022-08-03T14:37:42.978Z,95544
2022-08-03T14:38:52.711Z,95546
2022-08-03T14:40:02.478Z,95542
2022-08-03T14:41:12.012Z,95546
2022-08-03T14:42:21.811Z,95547
2022-08-03T14:43:33.933Z,95541
2022-08-03T14:44:39.188Z,95546
2022-08-03T14:45:48.911Z,95544
2022-08-03T14:46:56.608Z,95539
2022-08-03T14:50:24.467Z,95543
2022-08-03T14:50:35.189Z,95547
2022-08-03T14:50:35.487Z,95541
2022-08-03T14:51:38.237Z,95545